createdAt,value
2016-09-15T00:00:25.333Z,21.71
2016-09-15T00:01:25.307Z,21.53
2016-09-15T00:02:25.275Z,21.49
2016-09-15T00:03:25.251Z,21.44
2016-09-15T00:04:25.218Z,21.42
2016-09-15T00:05:24.892Z,21.4
2016-09-15T00:06:25.160Z,21.34
2016-09-15T00:07:24.832Z,21.25
2016-09-15T00:08:24.501Z,21.17
2016-09-15T00:09:24.773Z,21.22
2016-09-15T00:10:25.045Z,21.12
2016-09-15T00:11:25.018Z,20.99
2016-09-15T00:12:24.981Z,21.06
2016-09-15T00:13:24.650Z,21.03
2016-09-15T00:14:24.621Z,21.06
2016-09-15T00:15:24.592Z,20.94
2016-09-15T00:16:24.567Z,20.88
2016-09-15T00:17:24.532Z,20.87
2016-09-15T00:18:24.805Z,20.8
2016-09-15T00:19:24.482Z,20.84
2016-09-15T00:20:24.744Z,20.74
2016-09-15T00:21:24.718Z,20.94
2016-09-15T00:22:24.687Z,21.01
2016-09-15T00:23:24.660Z,20.98
2016-09-15T00:24:24.625Z,20.98
2016-09-15T00:25:24.295Z,21.06
2016-09-15T00:26:24.572Z,20.99
2016-09-15T00:27:24.239Z,20.99
2016-09-15T00:28:24.522Z,21.09
2016-09-15T00:29:24.487Z,21.06
2016-09-15T00:30:24.451Z,21.04
2016-09-15T00:31:24.425Z,20.99
2016-09-15T00:32:24.394Z,20.97
2016-09-15T00:33:24.364Z,20.91
2016-09-15T00:34:24.329Z,20.95
2016-09-15T00:35:24.304Z,20.95
2016-09-15T00:36:24.273Z,20.95
2016-09-15T00:37:23.943Z,20.82
2016-09-15T00:38:23.608Z,20.77
2016-09-15T00:39:24.196Z,20.73
2016-09-15T00:40:24.152Z,20.72
2016-09-15T00:41:23.822Z,20.7
2016-09-15T00:42:24.104Z,20.73
2016-09-15T00:43:23.768Z,20.74
2016-09-15T00:44:23.728Z,20.72
2016-09-15T00:45:24.005Z,20.77
2016-09-15T00:46:23.674Z,20.73
2016-09-15T00:47:23.643Z,20.73
2016-09-15T00:48:23.920Z,20.74
2016-09-15T00:49:23.588Z,20.73
2016-09-15T00:50:23.863Z,20.72
2016-09-15T00:51:23.826Z,20.82
2016-09-15T00:52:23.795Z,20.88
2016-09-15T00:53:23.781Z,20.72
2016-09-15T00:54:23.740Z,20.89
2016-09-15T00:55:23.407Z,20.84
2016-09-15T00:56:23.679Z,20.84
2016-09-15T00:57:23.648Z,20.87
2016-09-15T00:58:23.619Z,20.85
2016-09-15T00:59:23.593Z,20.82
2016-09-15T01:00:23.566Z,20.79
2016-09-15T01:01:23.529Z,20.92
2016-09-15T01:02:23.498Z,20.97
2016-09-15T01:03:23.472Z,20.99
2016-09-15T01:04:23.442Z,21.06
2016-09-15T01:05:23.108Z,20.95
2016-09-15T01:06:22.778Z,20.95
2016-09-15T01:07:23.349Z,21.01
2016-09-15T01:08:23.322Z,20.94
2016-09-15T01:09:22.993Z,21.04
2016-09-15T01:10:23.260Z,20.94
2016-09-15T01:11:22.930Z,20.97
2016-09-15T01:12:23.198Z,20.94
2016-09-15T01:13:22.569Z,20.87
2016-09-15T01:14:23.142Z,20.88
2016-09-15T01:15:22.510Z,20.85
2016-09-15T01:16:23.082Z,20.88
2016-09-15T01:17:23.060Z,20.8
2016-09-15T01:18:22.426Z,20.67
2016-09-15T01:19:22.995Z,20.69
2016-09-15T01:20:22.964Z,20.62
2016-09-15T01:21:22.932Z,20.59
2016-09-15T01:22:22.903Z,20.55
2016-09-15T01:23:22.272Z,20.59
2016-09-15T01:24:22.543Z,20.52
2016-09-15T01:25:22.518Z,20.54
2016-09-15T01:26:22.785Z,20.43
2016-09-15T01:27:22.756Z,20.42
2016-09-15T01:28:22.730Z,20.36
2016-09-15T01:29:22.700Z,20.29
2016-09-15T01:30:22.367Z,20.33
2016-09-15T01:31:22.342Z,20.29
2016-09-15T01:32:22.609Z,20.31
2016-09-15T01:33:22.578Z,20.31
2016-09-15T01:34:22.546Z,20.32
2016-09-15T01:35:22.216Z,20.29
2016-09-15T01:36:22.487Z,20.29
2016-09-15T01:37:22.466Z,20.32
2016-09-15T01:38:22.426Z,20.31
2016-09-15T01:39:22.410Z,20.35
2016-09-15T01:40:22.363Z,20.32
2016-09-15T01:41:22.359Z,20.41
2016-09-15T01:42:22.007Z,20.39
2016-09-15T01:43:21.987Z,20.47
2016-09-15T01:44:21.645Z,20.42
2016-09-15T01:45:22.232Z,20.42
2016-09-15T01:46:21.881Z,20.42
2016-09-15T01:47:21.854Z,20.47
2016-09-15T01:48:21.518Z,20.43
2016-09-15T01:49:22.098Z,20.39
2016-09-15T01:50:22.071Z,20.47
2016-09-15T01:51:21.735Z,20.43
2016-09-15T01:52:22.008Z,20.51
2016-09-15T01:53:21.992Z,20.54
2016-09-15T01:54:21.946Z,20.54
2016-09-15T01:55:21.916Z,20.59
2016-09-15T01:56:21.886Z,20.55
2016-09-15T01:57:21.859Z,20.59
2016-09-15T01:58:21.829Z,20.59
2016-09-15T01:59:21.794Z,20.67
2016-09-15T02:00:21.764Z,20.73
2016-09-15T02:01:21.435Z,20.76
2016-09-15T02:02:21.402Z,20.73
2016-09-15T02:03:21.678Z,20.82
2016-09-15T02:04:21.644Z,20.72
2016-09-15T02:05:21.619Z,20.88
2016-09-15T02:06:21.586Z,20.87
2016-09-15T02:07:21.556Z,20.87
2016-09-15T02:08:21.225Z,20.88
2016-09-15T02:09:21.492Z,20.87
2016-09-15T02:10:21.167Z,20.85
2016-09-15T02:11:21.439Z,20.84
2016-09-15T02:12:21.405Z,20.85
2016-09-15T02:13:21.377Z,20.76
2016-09-15T02:14:21.344Z,20.72
2016-09-15T02:15:21.036Z,20.66
2016-09-15T02:16:21.285Z,20.7
2016-09-15T02:17:21.262Z,20.61
2016-09-15T02:18:20.923Z,20.61
2016-09-15T02:19:21.198Z,20.57
2016-09-15T02:20:20.863Z,20.57
2016-09-15T02:21:21.136Z,20.59
2016-09-15T02:22:20.807Z,20.57
2016-09-15T02:23:21.078Z,20.58
2016-09-15T02:24:21.055Z,20.47
2016-09-15T02:25:21.021Z,20.41
2016-09-15T02:26:20.985Z,20.39
2016-09-15T02:27:20.972Z,20.33
2016-09-15T02:28:20.624Z,20.23
2016-09-15T02:29:20.900Z,20.2
2016-09-15T02:30:20.864Z,20.02
2016-09-15T02:31:20.843Z,20.1
2016-09-15T02:32:20.804Z,20.08
2016-09-15T02:33:20.473Z,20.06
2016-09-15T02:34:20.744Z,20.02
2016-09-15T02:35:20.415Z,19.99
2016-09-15T02:36:20.381Z,20.03
2016-09-15T02:37:20.352Z,20.03
2016-09-15T02:38:20.620Z,20.02
2016-09-15T02:39:20.594Z,20.05
2016-09-15T02:40:20.564Z,20.03
2016-09-15T02:41:20.536Z,20.06
2016-09-15T02:42:20.504Z,20.08
2016-09-15T02:43:20.174Z,19.94
2016-09-15T02:44:20.443Z,19.87
2016-09-15T02:45:20.115Z,19.94
2016-09-15T02:46:20.077Z,19.87
2016-09-15T02:47:20.051Z,19.83
2016-09-15T02:48:20.019Z,19.88
2016-09-15T02:49:20.308Z,19.88
2016-09-15T02:50:20.264Z,19.92
2016-09-15T02:51:19.927Z,19.86
2016-09-15T02:52:19.896Z,19.84
2016-09-15T02:53:20.169Z,19.8
2016-09-15T02:54:20.138Z,19.87
2016-09-15T02:55:20.112Z,19.86
2016-09-15T02:56:19.773Z,19.87
2016-09-15T02:57:20.049Z,19.84
2016-09-15T02:58:20.025Z,19.91
2016-09-15T02:59:19.989Z,20.03
2016-09-15T03:00:19.956Z,20.02
2016-09-15T03:01:19.628Z,20.18
2016-09-15T03:02:19.594Z,20.17
2016-09-15T03:03:19.865Z,20.21
2016-09-15T03:04:19.833Z,20.18
2016-09-15T03:05:19.506Z,20.18
2016-09-15T03:06:19.473Z,20.2
2016-09-15T03:07:19.446Z,20.21
2016-09-15T03:08:19.715Z,20.29
2016-09-15T03:09:19.692Z,20.26
2016-09-15T03:10:19.355Z,20.21
2016-09-15T03:11:19.624Z,20.24
2016-09-15T03:12:19.598Z,20.06
2016-09-15T03:13:19.576Z,20.03
2016-09-15T03:14:19.535Z,19.94
2016-09-15T03:15:19.200Z,19.95
2016-09-15T03:16:19.470Z,19.95
2016-09-15T03:17:19.441Z,19.88
2016-09-15T03:18:19.410Z,19.92
2016-09-15T03:19:19.385Z,19.87
2016-09-15T03:20:19.349Z,19.86
2016-09-15T03:21:19.019Z,19.88
2016-09-15T03:22:19.289Z,19.81
2016-09-15T03:23:19.258Z,19.8
2016-09-15T03:24:19.225Z,19.8
2016-09-15T03:25:19.201Z,19.73
2016-09-15T03:26:19.163Z,19.78
2016-09-15T03:27:19.148Z,19.69
2016-09-15T03:28:18.810Z,19.68
2016-09-15T03:29:19.078Z,19.68
2016-09-15T03:30:19.048Z,19.54
2016-09-15T03:31:19.011Z,19.58
2016-09-15T03:32:18.990Z,19.51
2016-09-15T03:33:18.651Z,19.48
2016-09-15T03:34:18.930Z,19.4
2016-09-15T03:35:18.592Z,19.5
2016-09-15T03:36:18.864Z,19.48
2016-09-15T03:37:18.836Z,19.61
2016-09-15T03:38:18.505Z,19.62
2016-09-15T03:39:18.773Z,19.59
2016-09-15T03:40:18.742Z,19.65
2016-09-15T03:41:18.713Z,19.71
2016-09-15T03:42:18.677Z,19.74
2016-09-15T03:43:18.647Z,19.76
2016-09-15T03:44:18.612Z,19.66
2016-09-15T03:45:18.291Z,19.63
2016-09-15T03:46:18.253Z,19.62
2016-09-15T03:47:18.531Z,19.58
2016-09-15T03:48:18.191Z,19.56
2016-09-15T03:49:18.172Z,19.59
2016-09-15T03:50:18.150Z,19.61
2016-09-15T03:51:17.815Z,19.51
2016-09-15T03:52:18.380Z,19.66
2016-09-15T03:53:18.344Z,19.73
2016-09-15T03:54:18.314Z,19.76
2016-09-15T03:55:17.981Z,19.74
2016-09-15T03:56:17.951Z,19.8
2016-09-15T03:57:17.618Z,19.88
2016-09-15T03:58:18.189Z,19.81
2016-09-15T03:59:17.556Z,19.84
2016-09-15T04:00:18.128Z,19.95
2016-09-15T04:01:17.794Z,19.91
2016-09-15T04:02:18.069Z,19.92
2016-09-15T04:03:17.738Z,19.92
2016-09-15T04:04:18.008Z,20.05
2016-09-15T04:05:17.674Z,19.92
2016-09-15T04:06:17.950Z,19.94
2016-09-15T04:07:17.923Z,19.94
2016-09-15T04:08:17.886Z,19.88
2016-09-15T04:09:17.555Z,19.88
2016-09-15T04:10:17.824Z,19.84
2016-09-15T04:11:17.494Z,19.76
2016-09-15T04:12:17.770Z,19.76
2016-09-15T04:13:17.732Z,19.68
2016-09-15T04:14:17.412Z,19.73
2016-09-15T04:15:17.371Z,19.66
2016-09-15T04:16:17.638Z,19.62
2016-09-15T04:17:17.313Z,19.58
2016-09-15T04:18:17.282Z,19.56
2016-09-15T04:19:17.248Z,19.5
2016-09-15T04:20:17.523Z,19.41
2016-09-15T04:21:16.890Z,19.36
2016-09-15T04:22:17.161Z,19.19
2016-09-15T04:23:17.131Z,19.14
2016-09-15T04:24:17.622Z,19.04
2016-09-15T04:25:17.064Z,18.95
2016-09-15T04:26:17.346Z,18.85
2016-09-15T04:27:17.319Z,18.7
2016-09-15T04:28:17.278Z,18.67
2016-09-15T04:29:17.252Z,18.57
2016-09-15T04:30:17.216Z,18.5
2016-09-15T04:31:16.885Z,18.37
2016-09-15T04:32:17.153Z,18.2
2016-09-15T04:33:17.122Z,18.21
2016-09-15T04:34:17.094Z,18.08
2016-09-15T04:35:16.760Z,17.97
2016-09-15T04:36:16.431Z,17.96
2016-09-15T04:37:17.015Z,17.93
2016-09-15T04:38:16.977Z,17.79
2016-09-15T04:39:16.939Z,17.7
2016-09-15T04:40:16.607Z,17.59
2016-09-15T04:41:16.877Z,17.52
2016-09-15T04:42:16.848Z,17.38
2016-09-15T04:43:16.525Z,17.36
2016-09-15T04:44:16.789Z,17.4
2016-09-15T04:45:16.749Z,17.3
2016-09-15T04:46:16.427Z,17.25
2016-09-15T04:47:16.686Z,17.21
2016-09-15T04:48:16.657Z,17.11
2016-09-15T04:49:16.324Z,17.14
2016-09-15T04:50:16.292Z,16.98
2016-09-15T04:51:16.563Z,16.86
2016-09-15T04:52:16.544Z,16.96
2016-09-15T04:53:16.506Z,16.81
2016-09-15T04:54:16.471Z,16.81
2016-09-15T04:55:15.834Z,16.75
2016-09-15T04:56:16.107Z,16.67
2016-09-15T04:57:16.369Z,16.5
2016-09-15T04:58:15.739Z,16.56
2016-09-15T04:59:16.009Z,16.56
2016-09-15T05:00:16.282Z,16.48
2016-09-15T05:01:16.254Z,16.39
2016-09-15T05:02:15.913Z,16.38
2016-09-15T05:03:16.185Z,16.33
2016-09-15T05:04:15.850Z,16.31
2016-09-15T05:05:15.533Z,16.35
2016-09-15T05:06:16.091Z,16.28
2016-09-15T05:07:16.055Z,16.25
2016-09-15T05:08:16.034Z,16.28
2016-09-15T05:09:15.997Z,16.27
2016-09-15T05:10:15.968Z,16.24
2016-09-15T05:11:15.633Z,16.23
2016-09-15T05:12:15.902Z,16.24
2016-09-15T05:13:15.567Z,16.17
2016-09-15T05:14:15.839Z,16.17
2016-09-15T05:15:15.506Z,16.25
2016-09-15T05:16:15.164Z,16.25
2016-09-15T05:17:15.436Z,16.24
2016-09-15T05:18:15.410Z,16.24
2016-09-15T05:19:15.071Z,16.21
2016-09-15T05:20:15.337Z,16.15
2016-09-15T05:21:15.613Z,16.25
2016-09-15T05:22:15.584Z,16.25
2016-09-15T05:23:15.547Z,16.28
2016-09-15T05:24:15.519Z,16.24
2016-09-15T05:25:15.487Z,16.35
2016-09-15T05:26:15.459Z,16.31
2016-09-15T05:27:15.418Z,16.45
2016-09-15T05:28:15.088Z,16.53
2016-09-15T05:29:15.357Z,16.93
2016-09-15T05:30:15.365Z,17.07
2016-09-15T05:31:15.293Z,17.22
2016-09-15T05:32:15.262Z,17.43
2016-09-15T05:33:15.225Z,17.7
2016-09-15T05:34:14.594Z,17.87
2016-09-15T05:35:15.166Z,18.05
2016-09-15T05:36:15.133Z,18.35
2016-09-15T05:37:15.104Z,18.58
2016-09-15T05:38:15.069Z,18.8
2016-09-15T05:39:14.440Z,18.91
2016-09-15T05:40:15.006Z,19.26
2016-09-15T05:41:14.675Z,19.5
2016-09-15T05:42:14.950Z,19.65
2016-09-15T05:43:14.615Z,19.91
2016-09-15T05:44:14.280Z,20.03
2016-09-15T05:45:14.861Z,20.24
2016-09-15T05:46:14.822Z,20.43
2016-09-15T05:47:14.794Z,20.48
2016-09-15T05:48:14.460Z,20.55
2016-09-15T05:49:14.736Z,20.59
2016-09-15T05:50:14.716Z,20.66
2016-09-15T05:51:14.677Z,20.72
2016-09-15T05:52:14.644Z,20.7
2016-09-15T05:53:14.612Z,20.73
2016-09-15T05:54:14.589Z,20.98
2016-09-15T05:55:14.248Z,21.13
2016-09-15T05:56:14.220Z,21.44
2016-09-15T05:57:13.908Z,21.71
2016-09-15T05:58:14.164Z,22.06
2016-09-15T05:59:14.434Z,22.22
2016-09-15T06:00:13.804Z,22.22
2016-09-15T06:01:14.075Z,22.57
2016-09-15T06:02:14.344Z,22.64
2016-09-15T06:03:14.321Z,22.72
2016-09-15T06:04:13.984Z,22.75
2016-09-15T06:05:13.965Z,22.83
2016-09-15T06:06:13.929Z,22.97
2016-09-15T06:07:13.904Z,23.16
2016-09-15T06:08:13.572Z,23.23
2016-09-15T06:09:14.153Z,23.46
2016-09-15T06:10:14.121Z,23.73
2016-09-15T06:11:13.795Z,24.02
2016-09-15T06:12:13.762Z,24.21
2016-09-15T06:13:13.731Z,24.43
2016-09-15T06:14:13.706Z,24.62
2016-09-15T06:15:13.680Z,24.87
2016-09-15T06:16:13.957Z,25.09
2016-09-15T06:17:13.929Z,25.24
2016-09-15T06:18:13.295Z,25.35
2016-09-15T06:19:13.574Z,25.57
2016-09-15T06:20:13.554Z,25.7
2016-09-15T06:21:13.517Z,25.87
2016-09-15T06:22:13.188Z,25.99
2016-09-15T06:23:13.777Z,26.18
2016-09-15T06:24:13.147Z,26.33
2016-09-15T06:25:13.407Z,26.65
2016-09-15T06:26:13.690Z,26.88
2016-09-15T06:27:13.659Z,27.02
2016-09-15T06:28:13.644Z,27.25
2016-09-15T06:29:13.613Z,27.54
2016-09-15T06:30:13.586Z,27.78
2016-09-15T06:31:13.567Z,27.94
2016-09-15T06:32:13.534Z,28.18
2016-09-15T06:33:13.200Z,28.43
2016-09-15T06:34:13.478Z,28.68
2016-09-15T06:35:13.463Z,28.81
2016-09-15T06:36:13.430Z,29.06
2016-09-15T06:37:13.403Z,29.31
2016-09-15T06:38:13.388Z,29.45
2016-09-15T06:39:13.364Z,29.74
2016-09-15T06:40:13.029Z,30.01
2016-09-15T06:41:13.002Z,30.2
2016-09-15T06:42:13.281Z,30.29
2016-09-15T06:43:13.256Z,30.45
2016-09-15T06:44:13.237Z,30.67
2016-09-15T06:45:13.208Z,30.7
2016-09-15T06:46:13.194Z,30.83
2016-09-15T06:47:13.161Z,30.89
2016-09-15T06:48:13.139Z,31.09
2016-09-15T06:49:13.121Z,31.19
2016-09-15T06:50:13.091Z,31.36
2016-09-15T06:51:12.466Z,31.61
2016-09-15T06:52:12.746Z,31.88
2016-09-15T06:53:13.019Z,32.06
2016-09-15T06:54:13.000Z,32.23
2016-09-15T06:55:12.973Z,32.43
2016-09-15T06:56:12.948Z,32.5
2016-09-15T06:57:12.926Z,32.72
2016-09-15T06:58:12.304Z,32.99
2016-09-15T06:59:12.901Z,33.19
2016-09-15T07:00:12.862Z,33.39
2016-09-15T07:01:12.843Z,33.6
2016-09-15T07:02:12.821Z,33.73
2016-09-15T07:03:12.798Z,33.91
2016-09-15T07:04:12.472Z,34.24
2016-09-15T07:05:12.754Z,34.43
2016-09-15T07:06:12.426Z,34.47
2016-09-15T07:07:12.408Z,34.61
2016-09-15T07:08:12.684Z,34.81
2016-09-15T07:09:12.364Z,35.1
2016-09-15T07:10:12.644Z,35.33
2016-09-15T07:11:12.319Z,35.59
2016-09-15T07:12:12.603Z,35.89
2016-09-15T07:13:12.580Z,36.01
2016-09-15T07:14:12.258Z,36.22
2016-09-15T07:15:12.536Z,36.32
2016-09-15T07:16:12.519Z,36.46
2016-09-15T07:17:12.195Z,36.56
2016-09-15T07:18:12.175Z,36.66
2016-09-15T07:19:12.459Z,36.85
2016-09-15T07:20:12.136Z,37.06
2016-09-15T07:21:11.823Z,37.12
2016-09-15T07:22:12.397Z,37.5
2016-09-15T07:23:12.371Z,37.75
2016-09-15T07:24:12.049Z,37.96
2016-09-15T07:25:12.336Z,38.18
2016-09-15T07:26:12.313Z,38.4
2016-09-15T07:27:12.301Z,38.4
2016-09-15T07:28:12.278Z,38.65
2016-09-15T07:29:11.970Z,38.81
2016-09-15T07:30:12.236Z,38.98
2016-09-15T07:31:11.913Z,39.03
2016-09-15T07:32:11.897Z,39.26
2016-09-15T07:33:12.184Z,39.43
2016-09-15T07:34:12.158Z,39.5
2016-09-15T07:35:11.839Z,39.69
2016-09-15T07:36:12.134Z,40.03
2016-09-15T07:37:12.100Z,40.19
2016-09-15T07:38:11.783Z,40.35
2016-09-15T07:39:12.066Z,40.55
2016-09-15T07:40:12.045Z,40.76
2016-09-15T07:41:11.723Z,40.87
2016-09-15T07:42:11.706Z,40.87
2016-09-15T07:43:11.992Z,40.99
2016-09-15T07:44:11.668Z,41.08
2016-09-15T07:45:11.349Z,41.18
2016-09-15T07:46:11.627Z,41.02
2016-09-15T07:47:11.917Z,40.73
2016-09-15T07:48:11.594Z,40.29
2016-09-15T07:49:11.577Z,39.92
2016-09-15T07:50:11.564Z,39.97
2016-09-15T07:51:11.539Z,40.03
2016-09-15T07:52:11.521Z,40.03
2016-09-15T07:53:11.802Z,39.91
2016-09-15T07:54:11.485Z,39.43
2016-09-15T07:55:11.470Z,38.72
2016-09-15T07:56:11.752Z,37.88
2016-09-15T07:57:11.729Z,37.17
2016-09-15T07:58:11.717Z,36.66
2016-09-15T07:59:11.694Z,36.07
2016-09-15T08:00:11.380Z,35.43
2016-09-15T08:01:11.050Z,34.84
2016-09-15T08:02:11.332Z,34.15
2016-09-15T08:03:11.612Z,33.68
2016-09-15T08:04:11.593Z,33.23
2016-09-15T08:05:11.269Z,32.96
2016-09-15T08:06:11.552Z,32.79
2016-09-15T08:07:11.230Z,33.35
2016-09-15T08:08:11.213Z,33.98
2016-09-15T08:09:11.198Z,34.42
2016-09-15T08:10:10.865Z,34.81
2016-09-15T08:11:11.143Z,34.77
2016-09-15T08:12:10.824Z,34.59
2016-09-15T08:13:11.102Z,34.24
2016-09-15T08:14:11.096Z,33.81
2016-09-15T08:15:11.358Z,33.45
2016-09-15T08:16:11.350Z,33.12
2016-09-15T08:17:11.318Z,32.69
2016-09-15T08:18:11.297Z,32.28
2016-09-15T08:19:11.275Z,31.81
2016-09-15T08:20:10.951Z,31.51
2016-09-15T08:21:11.230Z,31.19
2016-09-15T08:22:11.219Z,31.21
2016-09-15T08:23:11.192Z,31.7
2016-09-15T08:24:11.172Z,32.28
2016-09-15T08:25:10.540Z,32.52
2016-09-15T08:26:11.123Z,32.48
2016-09-15T08:27:10.796Z,32.38
2016-09-15T08:28:10.778Z,32.13
2016-09-15T08:29:11.055Z,31.86
2016-09-15T08:30:10.736Z,31.44
2016-09-15T08:31:11.007Z,31.13
2016-09-15T08:32:10.989Z,30.77
2016-09-15T08:33:10.666Z,30.54
2016-09-15T08:34:10.343Z,30.31
2016-09-15T08:35:10.918Z,30.22
2016-09-15T08:36:10.896Z,30.34
2016-09-15T08:37:10.575Z,30.16
2016-09-15T08:38:10.852Z,30
2016-09-15T08:39:10.529Z,29.97
2016-09-15T08:40:10.508Z,29.92
2016-09-15T08:41:10.784Z,29.79
2016-09-15T08:42:10.153Z,29.6
2016-09-15T08:43:10.429Z,29.53
2016-09-15T08:44:10.706Z,29.41
2016-09-15T08:45:10.384Z,29.37
2016-09-15T08:46:10.358Z,29.27
2016-09-15T08:47:10.639Z,29.31
2016-09-15T08:48:10.317Z,29.27
2016-09-15T08:49:10.288Z,29.27
2016-09-15T08:50:10.266Z,29.12
2016-09-15T08:51:10.545Z,29.05
2016-09-15T08:52:10.224Z,28.95
2016-09-15T08:53:09.895Z,28.78
2016-09-15T08:54:10.474Z,28.58
2016-09-15T08:55:10.445Z,28.4
2016-09-15T08:56:10.120Z,28.24
2016-09-15T08:57:10.099Z,28.04
2016-09-15T08:58:10.373Z,27.92
2016-09-15T08:59:10.346Z,27.84
2016-09-15T09:00:10.023Z,27.54
2016-09-15T09:01:10.302Z,27.46
2016-09-15T09:02:10.286Z,27.29
2016-09-15T09:03:10.258Z,27.14
2016-09-15T09:04:09.935Z,27.09
2016-09-15T09:05:09.899Z,27.02
2016-09-15T09:06:09.882Z,26.95
2016-09-15T09:07:09.550Z,26.94
2016-09-15T09:08:10.128Z,26.94
2016-09-15T09:09:09.500Z,26.99
2016-09-15T09:10:09.776Z,27.17
2016-09-15T09:11:10.059Z,27.25
2016-09-15T09:12:10.032Z,27.41
2016-09-15T09:13:09.400Z,27.55
2016-09-15T09:14:09.682Z,27.67
2016-09-15T09:15:09.953Z,27.85
2016-09-15T09:16:09.928Z,27.78
2016-09-15T09:17:09.905Z,27.67
2016-09-15T09:18:09.579Z,27.57
2016-09-15T09:19:09.844Z,27.5
2016-09-15T09:20:09.829Z,27.36
2016-09-15T09:21:09.798Z,27.17
2016-09-15T09:22:09.779Z,26.99
2016-09-15T09:23:09.451Z,26.94
2016-09-15T09:24:09.122Z,26.84
2016-09-15T09:25:09.097Z,26.76
2016-09-15T09:26:09.077Z,26.6
2016-09-15T09:27:09.651Z,26.5
2016-09-15T09:28:09.337Z,26.39
2016-09-15T09:29:09.605Z,26.32
2016-09-15T09:30:08.972Z,26.32
2016-09-15T09:31:09.555Z,26.17
2016-09-15T09:32:09.218Z,26.02
2016-09-15T09:33:09.502Z,25.91
2016-09-15T09:34:09.168Z,25.88
2016-09-15T09:35:08.845Z,25.82
2016-09-15T09:36:09.126Z,25.65
2016-09-15T09:37:09.398Z,25.62
2016-09-15T09:38:09.371Z,25.47
2016-09-15T09:39:09.350Z,25.38
2016-09-15T09:40:09.019Z,25.33
2016-09-15T09:41:08.989Z,25.32
2016-09-15T09:42:08.964Z,25.21
2016-09-15T09:43:09.236Z,25.15
2016-09-15T09:44:08.913Z,25.13
2016-09-15T09:45:09.186Z,24.99
2016-09-15T09:46:08.863Z,24.9
2016-09-15T09:47:09.135Z,24.84
2016-09-15T09:48:09.111Z,24.73
2016-09-15T09:49:09.093Z,24.76
2016-09-15T09:50:09.057Z,24.65
2016-09-15T09:51:09.033Z,24.67
2016-09-15T09:52:09.005Z,24.61
2016-09-15T09:53:08.975Z,24.49
2016-09-15T09:54:08.954Z,24.47
2016-09-15T09:55:08.623Z,24.37
2016-09-15T09:56:08.603Z,24.39
2016-09-15T09:57:08.269Z,24.28
2016-09-15T09:58:08.849Z,24.2
2016-09-15T09:59:08.514Z,24.28
2016-09-15T10:00:08.792Z,24.25
2016-09-15T10:01:08.468Z,24.21
2016-09-15T10:02:08.740Z,24.2
2016-09-15T10:03:08.714Z,24.09
2016-09-15T10:04:08.387Z,24.1
2016-09-15T10:05:08.375Z,24.08
2016-09-15T10:06:08.331Z,23.98
2016-09-15T10:07:08.310Z,23.97
2016-09-15T10:08:07.970Z,23.93
2016-09-15T10:09:08.251Z,23.87
2016-09-15T10:10:08.521Z,23.83
2016-09-15T10:11:08.195Z,23.73
2016-09-15T10:12:08.474Z,23.73
2016-09-15T10:13:08.152Z,23.72
2016-09-15T10:14:08.416Z,23.73
2016-09-15T10:15:08.391Z,23.57
2016-09-15T10:16:08.369Z,23.58
2016-09-15T10:17:08.383Z,23.5
2016-09-15T10:18:08.009Z,23.42
2016-09-15T10:19:08.281Z,23.38
2016-09-15T10:20:08.256Z,23.32
2016-09-15T10:21:08.223Z,23.2
2016-09-15T10:22:08.197Z,23.25
2016-09-15T10:23:07.871Z,23.19
2016-09-15T10:24:07.845Z,23.17
2016-09-15T10:25:08.116Z,23.16
2016-09-15T10:26:08.093Z,23.16
2016-09-15T10:27:08.060Z,23.16
2016-09-15T10:28:07.730Z,23.05
2016-09-15T10:29:08.056Z,23.15
2016-09-15T10:30:07.976Z,23.12
2016-09-15T10:31:07.951Z,23.09
2016-09-15T10:32:07.936Z,23.07
2016-09-15T10:33:07.900Z,23.09
2016-09-15T10:34:07.866Z,23.01
2016-09-15T10:35:07.843Z,22.95
2016-09-15T10:36:07.522Z,23.01
2016-09-15T10:37:07.490Z,22.97
2016-09-15T10:38:07.466Z,22.94
2016-09-15T10:39:07.743Z,22.88
2016-09-15T10:40:07.401Z,22.9
2016-09-15T10:41:07.368Z,22.86
2016-09-15T10:42:07.650Z,22.88
2016-09-15T10:43:07.618Z,22.85
2016-09-15T10:44:07.605Z,22.82
2016-09-15T10:45:07.259Z,22.86
2016-09-15T10:46:07.241Z,22.79
2016-09-15T10:47:07.205Z,22.75
2016-09-15T10:48:07.184Z,22.77
2016-09-15T10:49:07.158Z,22.79
2016-09-15T10:50:07.132Z,22.86
2016-09-15T10:51:06.796Z,22.85
2016-09-15T10:52:07.069Z,22.86
2016-09-15T10:53:07.344Z,22.82
2016-09-15T10:54:07.313Z,22.9
2016-09-15T10:55:07.288Z,22.88
2016-09-15T10:56:07.258Z,22.83
2016-09-15T10:57:07.228Z,22.83
2016-09-15T10:58:06.904Z,22.85
2016-09-15T10:59:07.180Z,22.85
2016-09-15T11:00:06.858Z,22.88
2016-09-15T11:01:07.117Z,22.9
2016-09-15T11:02:07.091Z,22.92
2016-09-15T11:03:07.064Z,22.97
2016-09-15T11:04:06.735Z,22.97
2016-09-15T11:05:06.710Z,23.05
2016-09-15T11:06:06.982Z,23.04
2016-09-15T11:07:06.647Z,23.1
2016-09-15T11:08:06.924Z,23.22
2016-09-15T11:09:06.901Z,23.33
2016-09-15T11:10:06.569Z,23.38
2016-09-15T11:11:06.536Z,23.6
2016-09-15T11:12:06.834Z,23.8
2016-09-15T11:13:06.182Z,24.02
2016-09-15T11:14:06.755Z,24.22
2016-09-15T11:15:06.435Z,24.42
2016-09-15T11:16:06.707Z,24.57
2016-09-15T11:17:06.677Z,24.69
2016-09-15T11:18:06.346Z,24.83
2016-09-15T11:19:06.618Z,25.02
2016-09-15T11:20:06.293Z,25.09
2016-09-15T11:21:06.571Z,25.18
2016-09-15T11:22:06.546Z,25.21
2016-09-15T11:23:06.514Z,25.14
2016-09-15T11:24:06.491Z,25.1
2016-09-15T11:25:06.165Z,25.2
2016-09-15T11:26:06.132Z,25.14
2016-09-15T11:27:06.411Z,25.14
2016-09-15T11:28:06.077Z,25.09
2016-09-15T11:29:05.753Z,25.06
2016-09-15T11:30:05.727Z,24.98
2016-09-15T11:31:06.002Z,24.83
2016-09-15T11:32:05.981Z,24.84
2016-09-15T11:33:05.947Z,24.78
2016-09-15T11:34:05.919Z,24.65
2016-09-15T11:35:06.193Z,24.42
2016-09-15T11:36:06.172Z,24.31
2016-09-15T11:37:06.140Z,24.24
2016-09-15T11:38:06.116Z,24.24
2016-09-15T11:39:05.783Z,24.08
2016-09-15T11:40:05.760Z,23.97
2016-09-15T11:41:06.037Z,24.03
2016-09-15T11:42:06.009Z,23.93
2016-09-15T11:43:05.983Z,23.83
2016-09-15T11:44:05.960Z,23.72
2016-09-15T11:45:05.623Z,23.79
2016-09-15T11:46:05.899Z,23.7
2016-09-15T11:47:05.271Z,23.53
2016-09-15T11:48:05.847Z,23.43
2016-09-15T11:49:05.522Z,23.42
2016-09-15T11:50:05.793Z,23.25
2016-09-15T11:51:05.457Z,23.27
2016-09-15T11:52:05.436Z,23.2
2016-09-15T11:53:05.110Z,23.13
2016-09-15T11:54:05.683Z,23.09
2016-09-15T11:55:05.655Z,22.9
2016-09-15T11:56:05.022Z,22.82
2016-09-15T11:57:05.601Z,22.82
2016-09-15T11:58:05.567Z,22.76
2016-09-15T11:59:05.243Z,22.88
2016-09-15T12:00:05.519Z,22.82
2016-09-15T12:01:05.190Z,22.76
2016-09-15T12:02:05.462Z,22.7
2016-09-15T12:03:05.132Z,22.62
2016-09-15T12:04:05.101Z,22.6
2016-09-15T12:05:05.387Z,22.6
2016-09-15T12:06:05.045Z,22.58
2016-09-15T12:07:05.017Z,22.54
2016-09-15T12:08:04.997Z,22.55
2016-09-15T12:09:05.261Z,22.47
2016-09-15T12:10:04.940Z,22.42
2016-09-15T12:11:04.935Z,22.37
2016-09-15T12:12:04.882Z,22.42
2016-09-15T12:13:04.552Z,22.33
2016-09-15T12:14:04.823Z,22.35
2016-09-15T12:15:04.794Z,22.35
2016-09-15T12:16:05.071Z,22.3
2016-09-15T12:17:04.740Z,22.27
2016-09-15T12:18:04.410Z,22.25
2016-09-15T12:19:04.987Z,22.25
2016-09-15T12:20:04.960Z,22.28
2016-09-15T12:21:04.626Z,22.35
2016-09-15T12:22:04.902Z,22.31
2016-09-15T12:23:04.870Z,22.3
2016-09-15T12:24:04.842Z,22.35
2016-09-15T12:25:04.810Z,22.37
2016-09-15T12:26:04.483Z,22.35
2016-09-15T12:27:04.758Z,22.31
2016-09-15T12:28:04.731Z,22.39
2016-09-15T12:29:04.701Z,22.45
2016-09-15T12:30:04.381Z,22.43
2016-09-15T12:31:04.645Z,22.37
2016-09-15T12:32:04.617Z,22.54
2016-09-15T12:33:04.587Z,22.43
2016-09-15T12:34:04.561Z,22.52
2016-09-15T12:35:04.534Z,22.6
2016-09-15T12:36:04.504Z,22.55
2016-09-15T12:37:03.872Z,22.58
2016-09-15T12:38:04.150Z,22.58
2016-09-15T12:39:04.119Z,22.73
2016-09-15T12:40:04.396Z,22.75
2016-09-15T12:41:04.363Z,22.76
2016-09-15T12:42:04.340Z,22.85
2016-09-15T12:43:04.008Z,22.8
2016-09-15T12:44:04.281Z,22.82
2016-09-15T12:45:03.947Z,22.8
2016-09-15T12:46:04.229Z,22.86
2016-09-15T12:47:03.894Z,22.82
2016-09-15T12:48:04.164Z,22.85
2016-09-15T12:49:03.849Z,22.88
2016-09-15T12:50:03.504Z,22.86
2016-09-15T12:51:03.780Z,22.83
2016-09-15T12:52:03.758Z,22.8
2016-09-15T12:53:03.743Z,22.76
2016-09-15T12:54:04.000Z,22.85